createdAt,value
2023-05-24T00:02:15.748Z,10.60
2023-05-24T00:04:42.995Z,10.60
2023-05-24T00:07:10.072Z,10.70
2023-05-24T00:09:37.170Z,10.70
2023-05-24T00:12:04.431Z,10.70
2023-05-24T00:14:32.100Z,10.60
2023-05-24T00:16:59.281Z,10.60
2023-05-24T00:19:27.610Z,10.60
2023-05-24T00:21:55.639Z,10.60
2023-05-24T00:24:22.878Z,10.60
2023-05-24T00:26:49.940Z,10.60
2023-05-24T00:29:17.062Z,10.50
2023-05-24T00:31:44.122Z,10.50
2023-05-24T00:34:11.448Z,10.50
2023-05-24T00:36:38.675Z,10.50
2023-05-24T00:39:06.026Z,10.50
2023-05-24T00:41:33.643Z,10.50
2023-05-24T00:44:00.732Z,10.50
2023-05-24T00:46:34.009Z,10.50
2023-05-24T00:49:01.934Z,10.50
2023-05-24T00:51:32.112Z,10.60
2023-05-24T00:53:59.744Z,10.60
2023-05-24T00:56:28.000Z,10.60
2023-05-24T00:58:56.302Z,10.60
2023-05-24T01:01:26.676Z,10.60
2023-05-24T01:03:54.761Z,10.50
2023-05-24T01:06:23.588Z,10.50
2023-05-24T01:09:14.154Z,10.40
2023-05-24T01:11:49.976Z,10.50
2023-05-24T01:14:36.883Z,10.50
2023-05-24T01:17:56.751Z,10.60
2023-05-24T01:20:24.803Z,10.70
2023-05-24T01:23:10.594Z,10.70
2023-05-24T01:26:11.130Z,10.60
2023-05-24T01:28:39.795Z,10.70
2023-05-24T01:31:07.221Z,10.50
2023-05-24T01:33:34.432Z,10.40
2023-05-24T01:36:01.444Z,10.30
2023-05-24T01:38:28.500Z,10.20
2023-05-24T01:41:04.625Z,10.20
2023-05-24T01:43:38.366Z,10.20
2023-05-24T01:46:25.443Z,10.30
2023-05-24T01:49:03.778Z,10.40
2023-05-24T01:51:38.911Z,10.50
2023-05-24T01:54:07.036Z,10.50
2023-05-24T01:56:35.988Z,10.50
2023-05-24T01:59:03.628Z,10.40
2023-05-24T02:01:31.997Z,10.10
2023-05-24T02:03:59.937Z,9.90
2023-05-24T02:06:26.998Z,9.70
2023-05-24T02:08:53.998Z,9.60
2023-05-24T02:11:21.728Z,9.60
2023-05-24T02:13:48.960Z,9.60
2023-05-24T02:16:16.063Z,9.50
2023-05-24T02:18:46.796Z,9.40
2023-05-24T02:21:14.213Z,9.40
2023-05-24T02:23:41.306Z,9.40
2023-05-24T02:26:11.672Z,9.40
2023-05-24T02:28:38.803Z,9.40
2023-05-24T02:33:33.903Z,9.60
2023-05-24T02:36:01.289Z,9.60
2023-05-24T02:38:28.553Z,9.60
2023-05-24T02:40:55.721Z,9.60
2023-05-24T02:43:22.783Z,9.50
2023-05-24T02:45:49.826Z,9.40
2023-05-24T02:48:16.930Z,9.40
2023-05-24T02:50:44.127Z,9.40
2023-05-24T02:53:11.930Z,9.30
2023-05-24T02:55:39.021Z,9.20
2023-05-24T02:58:06.476Z,9.10
2023-05-24T03:00:34.439Z,9.10
2023-05-24T03:03:03.363Z,9.10
2023-05-24T03:05:30.537Z,9.00
2023-05-24T03:07:58.504Z,8.90
2023-05-24T03:10:25.679Z,8.90
2023-05-24T03:12:52.712Z,8.90
2023-05-24T03:15:20.134Z,8.90
2023-05-24T03:17:47.450Z,8.90
2023-05-24T03:20:16.037Z,8.90
2023-05-24T03:22:43.426Z,8.90
2023-05-24T03:25:10.560Z,8.90
2023-05-24T03:27:38.250Z,9.00
2023-05-24T03:30:06.815Z,9.00
2023-05-24T03:32:40.218Z,9.00
2023-05-24T03:35:07.948Z,9.00
2023-05-24T03:37:35.026Z,9.00
2023-05-24T03:40:02.328Z,8.90
2023-05-24T03:42:44.100Z,9.00
2023-05-24T03:45:12.221Z,8.90
2023-05-24T03:47:39.339Z,8.80
2023-05-24T03:50:06.781Z,8.70
2023-05-24T03:52:33.801Z,8.70
2023-05-24T03:55:00.872Z,8.80
2023-05-24T03:57:27.948Z,8.80
2023-05-24T03:59:55.019Z,8.70
2023-05-24T04:02:24.286Z,8.80
2023-05-24T04:04:51.366Z,8.80
2023-05-24T04:07:19.709Z,8.80
2023-05-24T04:09:46.742Z,8.80
2023-05-24T04:12:13.730Z,8.80
2023-05-24T04:14:41.987Z,8.80
2023-05-24T04:17:10.099Z,8.80
2023-05-24T04:19:37.254Z,8.80
2023-05-24T04:22:05.612Z,8.70
2023-05-24T04:24:32.643Z,8.80
2023-05-24T04:26:59.724Z,8.70
2023-05-24T04:29:26.765Z,8.70
2023-05-24T04:31:53.902Z,8.70
2023-05-24T04:34:22.490Z,8.60
2023-05-24T04:36:52.569Z,8.60
2023-05-24T04:39:19.610Z,8.60
2023-05-24T04:41:46.658Z,8.60
2023-05-24T04:44:13.679Z,8.60
2023-05-24T04:46:40.679Z,8.60
2023-05-24T04:49:08.847Z,8.60
2023-05-24T04:51:38.688Z,8.60
2023-05-24T04:54:09.213Z,8.60
2023-05-24T04:56:38.638Z,8.60
2023-05-24T04:59:07.514Z,8.60
2023-05-24T05:01:34.607Z,8.60
2023-05-24T05:04:04.689Z,8.60
2023-05-24T05:06:35.038Z,8.60
2023-05-24T05:09:02.218Z,8.70
2023-05-24T05:11:29.320Z,8.70
2023-05-24T05:13:56.377Z,8.70
2023-05-24T05:20:19.281Z,8.70
2023-05-24T05:22:47.826Z,8.70
2023-05-24T05:25:14.968Z,8.70
2023-05-24T05:27:42.264Z,8.70
2023-05-24T05:30:23.577Z,8.70
2023-05-24T05:32:50.701Z,8.80
2023-05-24T05:35:17.832Z,8.90
2023-05-24T05:37:46.006Z,9.10
2023-05-24T05:40:13.147Z,9.20
2023-05-24T05:42:40.160Z,9.30
2023-05-24T05:45:07.964Z,9.30
2023-05-24T05:48:04.900Z,9.30
2023-05-24T05:50:31.955Z,9.40
2023-05-24T05:52:58.978Z,9.40
2023-05-24T05:55:26.000Z,9.50
2023-05-24T05:57:53.050Z,9.50
2023-05-24T06:00:22.345Z,9.50
2023-05-24T06:02:49.626Z,9.50
2023-05-24T06:05:16.739Z,9.50
2023-05-24T06:07:43.947Z,9.60
2023-05-24T06:10:11.263Z,9.60
2023-05-24T06:12:40.555Z,9.60
2023-05-24T06:15:08.336Z,9.70
2023-05-24T06:17:37.090Z,9.70
2023-05-24T06:20:08.232Z,9.80
2023-05-24T06:22:36.729Z,9.70
2023-05-24T06:25:05.449Z,9.70
2023-05-24T06:27:32.488Z,9.70
2023-05-24T06:29:59.609Z,9.60
2023-05-24T06:32:26.856Z,9.60
2023-05-24T06:34:53.877Z,9.40
2023-05-24T06:37:25.792Z,9.40
2023-05-24T06:39:52.875Z,9.40
2023-05-24T06:42:19.845Z,9.50
2023-05-24T06:44:46.894Z,9.50
2023-05-24T06:47:14.014Z,9.60
2023-05-24T06:49:42.018Z,9.60
2023-05-24T06:52:09.102Z,9.50
2023-05-24T06:54:36.421Z,9.40
2023-05-24T06:57:04.047Z,9.40
2023-05-24T06:59:31.121Z,9.50
2023-05-24T07:02:00.079Z,9.40
2023-05-24T07:04:29.448Z,9.40
2023-05-24T07:06:57.529Z,9.40
2023-05-24T07:09:24.612Z,9.30
2023-05-24T07:11:53.112Z,9.40
2023-05-24T07:14:33.678Z,9.50
2023-05-24T07:17:00.968Z,9.60
2023-05-24T07:19:29.874Z,9.60
2023-05-24T07:21:57.310Z,9.50
2023-05-24T07:24:32.722Z,9.50
2023-05-24T07:26:59.997Z,9.50
2023-05-24T07:29:36.394Z,9.50
2023-05-24T07:32:04.202Z,9.50
2023-05-24T07:34:31.448Z,9.50
2023-05-24T07:37:00.964Z,9.50
2023-05-24T07:39:28.649Z,9.60
2023-05-24T07:41:55.913Z,9.60
2023-05-24T07:44:24.312Z,9.60
2023-05-24T07:46:51.655Z,9.60
2023-05-24T07:49:18.874Z,9.50
2023-05-24T07:51:46.122Z,9.50
2023-05-24T07:54:13.286Z,9.40
2023-05-24T07:56:42.035Z,9.40
2023-05-24T07:59:09.142Z,9.40
2023-05-24T08:01:36.948Z,9.50
2023-05-24T08:04:04.465Z,9.50
2023-05-24T08:10:29.823Z,9.70
2023-05-24T08:12:56.902Z,9.90
2023-05-24T08:15:25.234Z,10.00
2023-05-24T08:17:57.429Z,10.00
2023-05-24T08:20:24.543Z,9.90
2023-05-24T08:22:54.826Z,9.70
2023-05-24T08:25:21.853Z,9.60
2023-05-24T08:27:48.912Z,9.50
2023-05-24T08:30:16.031Z,9.50
2023-05-24T08:32:43.124Z,9.50
2023-05-24T08:35:19.452Z,9.60
2023-05-24T08:37:49.377Z,9.60
2023-05-24T08:40:17.020Z,9.50
2023-05-24T08:42:46.302Z,9.50
2023-05-24T08:45:15.267Z,9.40
2023-05-24T08:47:42.786Z,9.40
2023-05-24T08:50:10.463Z,9.30
2023-05-24T08:52:39.729Z,9.30
2023-05-24T08:55:07.844Z,9.40
2023-05-24T08:57:40.031Z,9.40
2023-05-24T09:00:12.057Z,9.50
2023-05-24T09:02:40.418Z,9.60
2023-05-24T09:05:11.224Z,9.70
2023-05-24T09:07:38.938Z,9.80
2023-05-24T09:10:08.048Z,9.90
2023-05-24T09:12:39.011Z,10.00
2023-05-24T09:15:08.465Z,10.10
2023-05-24T09:17:37.522Z,10.30
2023-05-24T09:20:10.503Z,10.30
2023-05-24T09:22:41.301Z,10.30
2023-05-24T09:25:15.332Z,10.30
2023-05-24T09:27:46.158Z,10.40
2023-05-24T09:30:15.755Z,10.30
2023-05-24T09:32:56.352Z,10.30
2023-05-24T09:35:23.997Z,10.40
2023-05-24T09:37:55.364Z,10.40
2023-05-24T09:40:23.668Z,10.40
2023-05-24T09:43:03.496Z,10.40
2023-05-24T09:45:30.515Z,10.30
2023-05-24T09:47:58.248Z,10.30
2023-05-24T09:50:27.338Z,10.30
2023-05-24T09:52:56.302Z,10.30
2023-05-24T09:55:29.888Z,10.40
2023-05-24T09:58:15.874Z,10.40
2023-05-24T10:00:43.455Z,10.50
2023-05-24T10:03:12.942Z,10.50
2023-05-24T10:05:44.720Z,10.50
2023-05-24T10:08:12.864Z,10.40
2023-05-24T10:10:40.183Z,10.50
2023-05-24T10:13:07.781Z,10.40
2023-05-24T10:15:34.980Z,10.30
2023-05-24T10:18:02.827Z,10.30
2023-05-24T10:20:30.341Z,10.40
2023-05-24T10:23:02.179Z,10.50
2023-05-24T10:25:30.143Z,10.60
2023-05-24T10:28:09.007Z,10.70
2023-05-24T10:30:59.832Z,10.90
2023-05-24T10:33:27.727Z,11.10
2023-05-24T10:35:55.778Z,11.20
2023-05-24T10:38:24.599Z,11.20
2023-05-24T10:40:52.389Z,11.20
2023-05-24T10:43:19.874Z,11.30
2023-05-24T10:45:51.766Z,11.40
2023-05-24T10:48:28.817Z,11.60
2023-05-24T10:50:56.530Z,11.70
2023-05-24T10:53:26.627Z,11.90
2023-05-24T10:56:04.133Z,11.90
2023-05-24T10:58:34.249Z,11.90
2023-05-24T11:01:01.885Z,11.90
2023-05-24T11:03:35.574Z,12.00
2023-05-24T11:06:03.257Z,12.10
2023-05-24T11:08:33.549Z,12.20
2023-05-24T11:11:24.311Z,12.30
2023-05-24T11:13:58.086Z,12.50
2023-05-24T11:16:47.884Z,12.60
2023-05-24T11:19:17.424Z,12.70
2023-05-24T11:21:46.318Z,12.70
2023-05-24T11:28:39.950Z,13.00
2023-05-24T11:31:10.182Z,12.80
2023-05-24T11:33:42.857Z,12.70
2023-05-24T11:36:10.849Z,12.80
2023-05-24T11:38:37.939Z,12.80
2023-05-24T11:41:08.070Z,12.80
2023-05-24T11:43:35.538Z,13.00
2023-05-24T11:46:02.786Z,13.10
2023-05-24T11:48:30.837Z,13.10
2023-05-24T11:50:58.075Z,13.10
2023-05-24T11:53:25.582Z,13.10
2023-05-24T11:55:55.937Z,13.20
2023-05-24T11:58:32.889Z,13.30
2023-05-24T12:01:00.962Z,13.50
2023-05-24T12:03:28.180Z,13.70
2023-05-24T12:05:57.725Z,13.90
2023-05-24T12:08:24.811Z,14.30
2023-05-24T12:10:52.636Z,14.70
2023-05-24T12:13:23.352Z,15.10
2023-05-24T12:15:56.643Z,15.40
2023-05-24T12:18:26.391Z,15.30
2023-05-24T12:20:53.764Z,15.40
2023-05-24T12:23:24.082Z,15.60
2023-05-24T12:25:53.183Z,15.60
2023-05-24T12:28:21.916Z,15.50
2023-05-24T12:30:50.353Z,15.40
2023-05-24T12:33:24.521Z,15.60
2023-05-24T12:35:53.591Z,16.00
2023-05-24T12:38:25.736Z,16.40
2023-05-24T12:41:08.150Z,16.60
2023-05-24T12:43:42.099Z,16.70
2023-05-24T12:46:09.224Z,17.00
2023-05-24T12:48:36.437Z,17.20
2023-05-24T12:51:04.066Z,17.20
2023-05-24T12:53:31.105Z,17.30
2023-05-24T12:56:01.082Z,17.10
2023-05-24T12:58:31.197Z,17.00
2023-05-24T13:00:58.387Z,17.10
2023-05-24T13:03:28.274Z,17.30
2023-05-24T13:06:00.260Z,17.40
2023-05-24T13:08:30.319Z,17.70
2023-05-24T13:14:11.719Z,17.90
2023-05-24T13:16:41.864Z,17.80
2023-05-24T13:19:13.597Z,17.90
2023-05-24T13:21:41.070Z,18.20
2023-05-24T13:24:11.747Z,18.60
2023-05-24T13:26:41.709Z,18.80
2023-05-24T13:32:16.548Z,17.50
2023-05-24T13:34:51.163Z,16.60
2023-05-24T13:38:31.533Z,16.00
2023-05-24T13:41:00.001Z,15.50
2023-05-24T13:43:47.854Z,15.10
2023-05-24T13:49:01.296Z,14.90
2023-05-24T13:51:31.121Z,15.00
2023-05-24T13:53:58.290Z,15.30
2023-05-24T13:56:34.482Z,15.50
2023-05-24T13:59:05.565Z,15.60
2023-05-24T14:01:39.540Z,15.70
2023-05-24T14:04:24.035Z,16.00
2023-05-24T14:07:01.027Z,16.10
2023-05-24T14:09:41.747Z,16.40
2023-05-24T14:15:00.137Z,16.80
2023-05-24T14:18:17.342Z,16.80
2023-05-24T14:29:40.037Z,17.10
2023-05-24T14:32:07.394Z,17.00
2023-05-24T14:34:35.244Z,17.00
2023-05-24T14:37:03.823Z,17.10
2023-05-24T14:39:31.671Z,17.10
2023-05-24T14:41:59.450Z,17.00
2023-05-24T14:44:28.117Z,17.10
2023-05-24T14:46:55.764Z,17.10
2023-05-24T14:49:23.094Z,17.00
2023-05-24T14:51:50.115Z,17.20
2023-05-24T14:54:17.215Z,17.20
2023-05-24T14:56:44.488Z,17.20
2023-05-24T14:59:11.668Z,17.10
2023-05-24T15:01:38.782Z,16.90
2023-05-24T15:04:06.325Z,16.70
2023-05-24T15:06:35.420Z,16.60
2023-05-24T15:09:03.416Z,16.50
2023-05-24T15:11:59.473Z,16.50
2023-05-24T15:14:34.967Z,16.50
2023-05-24T15:17:02.262Z,16.30
2023-05-24T15:19:29.613Z,16.20
2023-05-24T15:21:56.800Z,16.00
2023-05-24T15:24:23.847Z,15.90
2023-05-24T15:26:51.083Z,15.80
2023-05-24T15:29:18.198Z,15.70
2023-05-24T15:31:45.723Z,15.80
2023-05-24T15:34:12.834Z,15.80
2023-05-24T15:36:41.176Z,15.60
2023-05-24T15:39:09.016Z,15.20
2023-05-24T15:41:37.896Z,15.10
2023-05-24T15:44:08.944Z,15.10
2023-05-24T15:46:36.723Z,15.10
2023-05-24T15:49:03.997Z,14.90
2023-05-24T15:52:02.701Z,14.80
2023-05-24T15:54:21.334Z,14.70
2023-05-24T15:56:49.962Z,14.70
2023-05-24T15:59:17.808Z,14.50
2023-05-24T16:01:45.758Z,14.50
2023-05-24T16:04:13.095Z,14.40
2023-05-24T16:06:40.152Z,14.30
2023-05-24T16:09:08.206Z,14.10
2023-05-24T16:11:35.805Z,14.10
2023-05-24T16:14:03.720Z,13.90
2023-05-24T16:16:30.824Z,13.70
2023-05-24T16:18:57.951Z,13.50
2023-05-24T16:21:25.096Z,13.40
2023-05-24T16:23:52.231Z,13.40
2023-05-24T16:26:19.279Z,13.40
2023-05-24T16:28:46.394Z,13.40
2023-05-24T16:31:19.063Z,13.40
2023-05-24T16:34:16.409Z,13.40
2023-05-24T16:36:46.036Z,13.40
2023-05-24T16:39:13.439Z,13.30
2023-05-24T16:41:40.821Z,13.30
2023-05-24T16:44:11.573Z,13.40
2023-05-24T16:46:38.759Z,13.50
2023-05-24T16:49:06.000Z,13.60
2023-05-24T16:51:36.083Z,13.60
2023-05-24T16:58:30.804Z,13.50
2023-05-24T17:00:58.795Z,13.50
2023-05-24T17:03:30.256Z,13.30
2023-05-24T17:06:03.251Z,13.20
2023-05-24T17:08:36.189Z,13.20
2023-05-24T17:11:04.721Z,13.10
2023-05-24T17:13:32.390Z,13.10
2023-05-24T17:16:00.584Z,13.10
2023-05-24T17:18:28.568Z,13.10
2023-05-24T17:20:57.066Z,13.10
2023-05-24T17:23:27.916Z,13.10
2023-05-24T17:25:58.371Z,13.00
2023-05-24T17:28:30.022Z,12.90
2023-05-24T17:31:02.647Z,12.90
2023-05-24T17:33:31.453Z,12.80
2023-05-24T17:36:01.220Z,12.70
2023-05-24T17:38:29.072Z,12.70
2023-05-24T17:40:57.175Z,12.60
2023-05-24T17:43:28.799Z,12.50
2023-05-24T17:46:04.193Z,12.50
2023-05-24T17:48:35.982Z,12.60
2023-05-24T17:51:30.476Z,12.40
2023-05-24T17:54:40.267Z,12.30
2023-05-24T17:57:07.929Z,12.30
2023-05-24T17:59:35.103Z,12.20
2023-05-24T18:02:02.230Z,12.20
2023-05-24T18:04:29.351Z,12.30
2023-05-24T18:06:56.746Z,12.30
2023-05-24T18:09:23.836Z,12.10
2023-05-24T18:11:51.709Z,11.90
2023-05-24T18:14:18.876Z,11.80
2023-05-24T18:16:46.184Z,11.80
2023-05-24T18:19:13.379Z,11.70
2023-05-24T18:21:41.326Z,11.80
2023-05-24T18:24:08.425Z,11.90
2023-05-24T18:26:35.533Z,11.90
2023-05-24T18:29:02.675Z,11.90
2023-05-24T18:31:29.700Z,11.80
2023-05-24T18:33:56.885Z,11.90
2023-05-24T18:36:24.252Z,11.90
2023-05-24T18:38:51.921Z,11.90
2023-05-24T18:41:19.098Z,12.00
2023-05-24T18:43:46.218Z,11.90
2023-05-24T18:46:15.000Z,12.00
2023-05-24T18:48:42.605Z,12.00
2023-05-24T18:51:10.266Z,12.00
2023-05-24T18:53:37.291Z,11.90
2023-05-24T18:56:04.520Z,11.90
2023-05-24T18:58:31.694Z,11.90
2023-05-24T19:00:59.489Z,11.90
2023-05-24T19:03:57.171Z,11.80
2023-05-24T19:06:24.330Z,11.80
2023-05-24T19:08:51.364Z,11.80
2023-05-24T19:11:25.570Z,11.70
2023-05-24T19:13:52.625Z,11.60
2023-05-24T19:16:19.692Z,11.50
2023-05-24T19:18:46.887Z,11.50
2023-05-24T19:21:14.023Z,11.40
2023-05-24T19:23:42.470Z,11.40
2023-05-24T19:26:09.963Z,11.30
2023-05-24T19:28:40.525Z,11.30
2023-05-24T19:31:08.406Z,11.20
2023-05-24T19:33:42.696Z,11.10
2023-05-24T19:36:17.074Z,11.10
2023-05-24T19:43:09.787Z,10.70
2023-05-24T19:45:37.226Z,10.50
2023-05-24T19:48:05.344Z,10.40
2023-05-24T19:50:32.839Z,10.40
2023-05-24T19:53:00.079Z,10.40
2023-05-24T19:55:27.587Z,10.40
2023-05-24T19:57:55.055Z,10.40
2023-05-24T20:00:22.778Z,10.30
2023-05-24T20:02:50.265Z,10.00
2023-05-24T20:05:17.775Z,9.70
2023-05-24T20:07:46.256Z,9.50
2023-05-24T20:10:13.958Z,9.40
2023-05-24T20:12:42.875Z,9.20
2023-05-24T20:15:11.713Z,9.00
2023-05-24T20:17:38.959Z,8.80
2023-05-24T20:20:07.495Z,8.70
2023-05-24T20:22:34.866Z,8.60
2023-05-24T20:25:02.224Z,8.60
2023-05-24T20:27:29.700Z,8.60
2023-05-24T20:29:56.833Z,8.70
2023-05-24T20:32:24.237Z,8.80
2023-05-24T20:34:51.659Z,8.90
2023-05-24T20:37:18.850Z,9.00
2023-05-24T20:39:46.205Z,9.00
2023-05-24T20:42:13.690Z,8.90
2023-05-24T20:44:41.066Z,8.80
2023-05-24T20:47:08.664Z,8.90
2023-05-24T20:49:36.349Z,8.90
2023-05-24T20:52:04.333Z,8.90
2023-05-24T20:54:31.432Z,8.80
2023-05-24T20:56:59.759Z,8.90
2023-05-24T20:59:26.764Z,8.90
2023-05-24T21:02:30.833Z,8.90
2023-05-24T21:04:57.901Z,8.90
2023-05-24T21:07:24.987Z,8.80
2023-05-24T21:09:52.060Z,8.80
2023-05-24T21:12:19.053Z,8.70
2023-05-24T21:14:46.042Z,8.70
2023-05-24T21:17:13.304Z,8.60
2023-05-24T21:19:40.664Z,8.60
2023-05-24T21:22:07.735Z,8.50
2023-05-24T21:24:34.780Z,8.40
2023-05-24T21:27:01.937Z,8.20
2023-05-24T21:29:28.998Z,8.20
2023-05-24T21:31:56.114Z,8.10
2023-05-24T21:34:23.260Z,8.00
2023-05-24T21:36:50.323Z,8.00
2023-05-24T21:39:17.382Z,7.90
2023-05-24T21:41:44.384Z,7.90
2023-05-24T21:44:11.449Z,7.90
2023-05-24T21:46:38.568Z,7.80
2023-05-24T21:49:05.583Z,7.80
2023-05-24T21:51:32.593Z,7.80
2023-05-24T21:53:59.593Z,7.70
2023-05-24T21:56:27.196Z,7.70
2023-05-24T21:58:54.313Z,7.70
2023-05-24T22:01:21.698Z,7.70
2023-05-24T22:03:49.041Z,7.70
2023-05-24T22:06:16.343Z,7.60
2023-05-24T22:08:43.433Z,7.60
2023-05-24T22:11:10.654Z,7.60
2023-05-24T22:13:37.682Z,7.60
2023-05-24T22:16:05.071Z,7.60
2023-05-24T22:18:32.737Z,7.60
2023-05-24T22:20:59.799Z,7.70
2023-05-24T22:23:26.872Z,7.70
2023-05-24T22:25:54.222Z,7.70
2023-05-24T22:28:21.487Z,7.70
2023-05-24T22:30:48.525Z,7.70
2023-05-24T22:33:16.503Z,7.60
2023-05-24T22:35:43.891Z,7.60
2023-05-24T22:38:11.220Z,7.60
2023-05-24T22:40:39.027Z,7.60
2023-05-24T22:43:06.225Z,7.60
2023-05-24T22:45:33.243Z,7.60
2023-05-24T22:48:00.369Z,7.50
2023-05-24T22:50:27.484Z,7.50
2023-05-24T22:52:56.814Z,7.40
2023-05-24T22:55:23.998Z,7.40
2023-05-24T22:57:51.058Z,7.30
2023-05-24T23:00:18.307Z,7.30
2023-05-24T23:02:45.413Z,7.40
2023-05-24T23:05:12.472Z,7.40
2023-05-24T23:07:40.012Z,7.40
2023-05-24T23:10:08.321Z,7.40
2023-05-24T23:12:35.996Z,7.40
2023-05-24T23:15:03.102Z,7.40
2023-05-24T23:17:30.246Z,7.40
2023-05-24T23:19:57.340Z,7.30
2023-05-24T23:22:26.298Z,7.30
2023-05-24T23:24:53.619Z,7.40
2023-05-24T23:27:20.720Z,7.40
2023-05-24T23:29:47.762Z,7.40
2023-05-24T23:32:14.796Z,7.40
2023-05-24T23:34:41.916Z,7.40
2023-05-24T23:37:09.009Z,7.50
2023-05-24T23:39:36.121Z,7.50
2023-05-24T23:42:03.875Z,7.60
2023-05-24T23:44:31.129Z,7.60
2023-05-24T23:46:58.358Z,7.60
2023-05-24T23:49:25.941Z,7.70
2023-05-24T23:51:53.085Z,7.80
2023-05-24T23:54:20.311Z,7.90
2023-05-24T23:56:47.816Z,7.90
2023-05-24T23:59:16.997Z,7.80
